Time;durP1;ratioP1;P1;durP2;ratioP2;P2;SDS_P1;SDS_P2;PMS_P1;PMS_P2;Temp;Humidity;BMP_temperature;BMP_pressure;BME280_temperature;BME280_humidity;BME280_pressure;Samples;Min_cycle;Max_cycle;Signal;HPM_P1;HPM_P2
2022/05/07 00:00:22;;;;;;;0.60;0.60;;;9.00;99.90;;;;;;5013481;28;20253;-78
2022/05/07 00:02:48;;;;;;;0.70;0.70;;;9.00;99.90;;;;;;5014752;28;20184;-79
2022/05/07 00:05:13;;;;;;;0.63;0.63;;;9.00;99.90;;;;;;5015033;28;20180;-78
2022/05/07 00:07:39;;;;;;;0.60;0.60;;;9.00;99.90;;;;;;5015968;28;20595;-79
2022/05/07 00:10:05;;;;;;;0.60;0.60;;;9.00;99.90;;;;;;5014979;28;20518;-78
2022/05/07 00:12:31;;;;;;;0.60;0.60;;;8.90;99.90;;;;;;5030064;28;20212;-78
2022/05/07 00:14:56;;;;;;;0.60;0.60;;;8.90;96.20;;;;;;5027311;28;20180;-78
2022/05/07 00:20:07;;;;;;;0.80;0.80;;;8.90;99.90;;;;;;5018474;28;20234;-78
2022/05/07 00:22:32;;;;;;;0.70;0.70;;;8.80;99.90;;;;;;5017592;28;20637;-78
2022/05/07 00:24:58;;;;;;;0.70;0.70;;;8.80;99.90;;;;;;5016887;28;20179;-77
2022/05/07 00:27:23;;;;;;;0.67;0.67;;;8.70;99.90;;;;;;5015629;28;20223;-78
2022/05/07 00:29:49;;;;;;;0.60;0.60;;;8.60;99.90;;;;;;5016334;28;20191;-78
2022/05/07 00:32:15;;;;;;;0.50;0.50;;;8.50;99.90;;;;;;5017455;28;20258;-77
2022/05/07 00:34:40;;;;;;;0.70;0.70;;;8.50;99.90;;;;;;5018313;28;20188;-79
2022/05/07 00:37:06;;;;;;;0.67;0.67;;;8.50;99.90;;;;;;5017707;28;20206;-78
2022/05/07 00:39:31;;;;;;;0.50;0.50;;;8.50;99.90;;;;;;5016841;28;20227;-79
2022/05/07 00:42:03;;;;;;;0.70;0.70;;;8.40;99.90;;;;;;5017927;28;20197;-79
2022/05/07 00:44:28;;;;;;;0.60;0.60;;;8.40;99.90;;;;;;5017332;28;20555;-78
2022/05/07 00:46:56;;;;;;;0.50;0.50;;;8.30;99.90;;;;;;5021676;28;20582;-78
2022/05/07 00:49:21;;;;;;;0.77;0.77;;;8.30;99.90;;;;;;5025957;28;20177;-78
2022/05/07 00:51:47;;;;;;;0.60;0.60;;;8.30;99.90;;;;;;5023419;28;20215;-78
2022/05/07 00:54:13;;;;;;;0.70;0.70;;;8.20;99.90;;;;;;5018297;28;20207;-78
2022/05/07 00:56:38;;;;;;;0.80;0.80;;;8.10;99.90;;;;;;5015386;28;20637;-77
2022/05/07 00:59:05;;;;;;;0.60;0.60;;;8.00;99.90;;;;;;5013735;28;20299;-78
2022/05/07 01:01:31;;;;;;;0.63;0.63;;;7.90;99.90;;;;;;5014685;28;20243;-78
2022/05/07 01:03:57;;;;;;;0.70;0.70;;;7.90;99.90;;;;;;5015165;28;20183;-77
2022/05/07 01:06:22;;;;;;;0.70;0.70;;;7.90;99.90;;;;;;5017063;28;20267;-78
2022/05/07 01:08:49;;;;;;;0.60;0.60;;;7.80;99.90;;;;;;5016541;28;20196;-78
2022/05/07 01:11:16;;;;;;;0.60;0.60;;;7.80;99.90;;;;;;5015470;28;20204;-78
2022/05/07 01:13:43;;;;;;;0.67;0.67;;;7.70;99.90;;;;;;5015631;28;20208;-78
2022/05/07 01:16:08;;;;;;;0.70;0.70;;;7.70;99.90;;;;;;5016802;28;20589;-78
2022/05/07 01:18:34;;;;;;;0.70;0.70;;;7.60;99.90;;;;;;5016797;28;20215;-78
2022/05/07 01:21:13;;;;;;;0.60;0.60;;;7.60;99.90;;;;;;5017275;28;20279;-78
2022/05/07 01:23:41;;;;;;;0.60;0.60;;;7.70;99.90;;;;;;5016846;28;20181;-78
2022/05/07 01:26:06;;;;;;;0.70;0.70;;;7.70;99.90;;;;;;4998194;28;20213;-78
2022/05/07 01:28:32;;;;;;;0.70;0.70;;;7.70;99.90;;;;;;5014075;28;20642;-78
2022/05/07 01:30:58;;;;;;;0.60;0.60;;;7.70;99.90;;;;;;5015506;28;20196;-78
2022/05/07 01:33:23;;;;;;;0.60;0.60;;;7.60;99.90;;;;;;5014914;28;20185;-78
2022/05/07 01:35:49;;;;;;;0.60;0.60;;;7.60;99.90;;;;;;5013245;28;20183;-78
2022/05/07 01:38:14;;;;;;;0.60;0.60;;;7.60;99.90;;;;;;5014837;28;20183;-78
2022/05/07 01:40:40;;;;;;;0.60;0.60;;;7.50;99.90;;;;;;5015604;28;20231;-78
2022/05/07 01:43:05;;;;;;;0.67;0.67;;;7.50;99.90;;;;;;5017298;28;20259;-77
2022/05/07 01:45:31;;;;;;;0.50;0.50;;;7.50;99.90;;;;;;5016293;28;20183;-78
2022/05/07 01:48:12;;;;;;;0.70;0.70;;;7.50;99.90;;;;;;5016095;28;20222;-78
2022/05/07 01:50:42;;;;;;;0.60;0.60;;;7.50;99.90;;;;;;5017132;28;20196;-78
2022/05/07 01:53:12;;;;;;;0.70;0.70;;;7.40;99.90;;;;;;5017315;28;20176;-78
2022/05/07 01:55:38;;;;;;;0.60;0.60;;;7.40;99.90;;;;;;5016321;28;20234;-78
2022/05/07 01:58:04;;;;;;;0.70;0.70;;;7.30;99.90;;;;;;5015694;28;20255;-78
2022/05/07 02:00:30;;;;;;;0.60;0.60;;;7.30;99.90;;;;;;5014878;28;20212;-78
2022/05/07 02:02:57;;;;;;;0.63;0.63;;;7.30;99.90;;;;;;5015319;28;20183;-78
2022/05/07 02:05:23;;;;;;;0.70;0.70;;;7.30;99.90;;;;;;5015174;28;20230;-78
2022/05/07 02:07:49;;;;;;;0.70;0.70;;;7.30;99.90;;;;;;5015983;28;20200;-78
2022/05/07 02:10:14;;;;;;;0.70;0.70;;;7.30;99.90;;;;;;5014479;28;20242;-77
2022/05/07 02:12:40;;;;;;;0.70;0.70;;;7.30;99.90;;;;;;5013845;28;20267;-77
2022/05/07 02:15:06;;;;;;;0.70;0.70;;;7.30;99.90;;;;;;5013843;28;20228;-77
2022/05/07 02:17:32;;;;;;;0.70;0.70;;;7.30;99.90;;;;;;5014434;28;20675;-78
2022/05/07 02:19:57;;;;;;;0.63;0.63;;;7.20;99.90;;;;;;5014459;28;20243;-78
2022/05/07 02:22:23;;;;;;;0.70;0.70;;;7.20;99.90;;;;;;5018713;28;20196;-77
2022/05/07 02:24:48;;;;;;;0.70;0.70;;;7.20;99.90;;;;;;5019492;28;20195;-77
2022/05/07 02:27:14;;;;;;;0.60;0.60;;;7.20;99.90;;;;;;5017950;28;20173;-77
2022/05/07 02:29:39;;;;;;;0.70;0.70;;;7.20;99.90;;;;;;5020977;28;20653;-78
2022/05/07 02:32:06;;;;;;;0.60;0.60;;;7.10;99.90;;;;;;5022601;28;20201;-78
2022/05/07 02:34:32;;;;;;;0.70;0.70;;;7.00;99.90;;;;;;5022807;28;20188;-80
2022/05/07 02:36:58;;;;;;;0.67;0.67;;;6.90;99.90;;;;;;5022315;28;20172;-78
2022/05/07 02:39:24;;;;;;;0.63;0.63;;;6.90;99.90;;;;;;5022676;28;20224;-78
2022/05/07 02:44:34;;;;;;;0.60;0.60;;;6.90;99.90;;;;;;5023136;28;20176;-78
2022/05/07 02:46:59;;;;;;;0.60;0.60;;;6.90;99.90;;;;;;5022235;28;20172;-78
2022/05/07 02:49:25;;;;;;;0.70;0.70;;;6.80;99.90;;;;;;5017383;28;20645;-77
2022/05/07 02:51:51;;;;;;;0.63;0.63;;;6.80;99.90;;;;;;5017557;28;20200;-78
2022/05/07 02:54:17;;;;;;;0.70;0.70;;;6.80;99.90;;;;;;5019595;28;20183;-78
2022/05/07 02:56:42;;;;;;;0.63;0.63;;;6.70;99.90;;;;;;5018936;28;20742;-78
2022/05/07 02:59:08;;;;;;;0.80;0.80;;;6.70;99.90;;;;;;5017674;28;20218;-77
2022/05/07 03:01:33;;;;;;;0.60;0.60;;;6.70;99.90;;;;;;5018882;28;20192;-78
2022/05/07 03:03:59;;;;;;;0.60;0.60;;;6.70;99.90;;;;;;5018833;28;20633;-77
2022/05/07 03:06:25;;;;;;;0.60;0.60;;;6.60;99.90;;;;;;5019049;28;20659;-77
2022/05/07 03:08:50;;;;;;;0.70;0.70;;;6.60;99.90;;;;;;5018955;28;20184;-78
2022/05/07 03:11:16;;;;;;;0.70;0.70;;;6.50;99.90;;;;;;5018867;28;20269;-79
2022/05/07 03:13:41;;;;;;;0.63;0.63;;;6.60;99.90;;;;;;5018772;28;20263;-77
2022/05/07 03:16:07;;;;;;;0.70;0.70;;;6.60;99.90;;;;;;5019003;28;20254;-78
2022/05/07 03:18:32;;;;;;;0.80;0.80;;;6.60;99.90;;;;;;5018457;28;20505;-78
2022/05/07 03:21:01;;;;;;;0.70;0.70;;;6.60;99.90;;;;;;5018836;28;20200;-78
2022/05/07 03:23:27;;;;;;;0.70;0.70;;;6.60;99.90;;;;;;5019325;28;20196;-78
2022/05/07 03:25:52;;;;;;;0.70;0.70;;;6.60;99.90;;;;;;5001367;28;20640;-78
2022/05/07 03:28:18;;;;;;;0.63;0.63;;;6.60;99.90;;;;;;5017137;28;20259;-78
2022/05/07 03:30:43;;;;;;;0.70;0.70;;;6.70;99.90;;;;;;5018653;28;20622;-78
2022/05/07 03:33:09;;;;;;;0.70;0.70;;;6.70;99.90;;;;;;5019044;28;20196;-78
2022/05/07 03:35:35;;;;;;;0.70;0.70;;;6.70;99.90;;;;;;5017938;28;20183;-77
2022/05/07 03:38:00;;;;;;;0.60;0.60;;;6.70;99.90;;;;;;5017532;28;20268;-78
2022/05/07 03:40:27;;;;;;;0.67;0.67;;;6.60;99.90;;;;;;5018087;28;20227;-79
2022/05/07 03:42:53;;;;;;;0.70;0.70;;;6.60;99.90;;;;;;5018311;28;20563;-78
2022/05/07 03:45:19;;;;;;;0.80;0.80;;;6.60;99.90;;;;;;5026815;28;20188;-79
2022/05/07 03:47:45;;;;;;;0.70;0.70;;;6.60;99.90;;;;;;5027290;28;20240;-79
2022/05/07 03:50:11;;;;;;;0.60;0.60;;;6.60;99.90;;;;;;5019983;28;20671;-76
2022/05/07 03:55:20;;;;;;;0.63;0.63;;;6.50;99.90;;;;;;5022303;28;20199;-78
2022/05/07 03:57:46;;;;;;;0.70;0.70;;;6.50;99.90;;;;;;5021601;28;20180;-78
2022/05/07 04:00:12;;;;;;;0.60;0.60;;;6.40;99.90;;;;;;5023067;28;20219;-77
2022/05/07 04:02:37;;;;;;;0.70;0.70;;;6.50;99.90;;;;;;5019025;28;20173;-77
2022/05/07 04:05:03;;;;;;;0.70;0.70;;;6.50;99.90;;;;;;5026397;28;20184;-78
2022/05/07 04:07:29;;;;;;;0.60;0.60;;;6.40;99.90;;;;;;5032016;28;20191;-78
2022/05/07 04:09:55;;;;;;;0.70;0.70;;;6.40;99.90;;;;;;5030758;28;20181;-77
2022/05/07 04:12:21;;;;;;;0.60;0.60;;;6.40;99.90;;;;;;5030158;28;20704;-78
2022/05/07 04:14:47;;;;;;;0.87;0.87;;;6.50;99.90;;;;;;5029871;28;20207;-78
2022/05/07 04:17:12;;;;;;;0.77;0.77;;;6.50;99.90;;;;;;5029418;28;20184;-79
2022/05/07 04:19:38;;;;;;;0.73;0.73;;;6.50;99.90;;;;;;5028810;28;20215;-78
2022/05/07 04:22:03;;;;;;;0.60;0.60;;;6.50;99.90;;;;;;5030243;28;20265;-79
2022/05/07 04:24:29;;;;;;;0.70;0.70;;;6.50;99.90;;;;;;5023536;28;20637;-79
2022/05/07 04:26:55;;;;;;;0.83;0.83;;;6.60;99.90;;;;;;5019537;28;20688;-77
2022/05/07 04:29:21;;;;;;;0.60;0.60;;;6.70;99.90;;;;;;5018455;28;20223;-78
2022/05/07 04:31:46;;;;;;;0.80;0.80;;;6.70;99.90;;;;;;5016368;28;20279;-77
2022/05/07 04:34:12;;;;;;;0.70;0.70;;;6.80;99.90;;;;;;5014816;28;20640;-77
2022/05/07 04:36:38;;;;;;;0.80;0.80;;;6.90;99.90;;;;;;5015350;28;20216;-77
2022/05/07 04:39:03;;;;;;;0.80;0.80;;;6.80;99.90;;;;;;5014191;28;20207;-77
2022/05/07 04:41:29;;;;;;;0.80;0.80;;;6.80;99.90;;;;;;5013286;28;20196;-77
2022/05/07 04:43:54;;;;;;;0.90;0.90;;;6.90;99.90;;;;;;5013683;28;20248;-77
2022/05/07 04:46:20;;;;;;;0.80;0.80;;;6.90;99.90;;;;;;5013671;28;20181;-77
2022/05/07 04:48:46;;;;;;;0.60;0.60;;;7.00;99.90;;;;;;5014243;28;20200;-76
2022/05/07 04:51:12;;;;;;;0.77;0.77;;;7.10;99.90;;;;;;5013918;28;20216;-76
2022/05/07 04:53:37;;;;;;;0.70;0.70;;;7.30;99.90;;;;;;5013367;28;20513;-77
2022/05/07 04:56:03;;;;;;;0.60;0.60;;;7.30;99.90;;;;;;5012735;28;20633;-77
2022/05/07 04:58:29;;;;;;;0.60;0.60;;;7.40;99.90;;;;;;5012653;28;20267;-77
2022/05/07 05:00:54;;;;;;;0.60;0.60;;;7.40;99.90;;;;;;5012424;28;20207;-76
2022/05/07 05:03:20;;;;;;;0.60;0.60;;;7.50;99.90;;;;;;5014696;28;20176;-77
2022/05/07 05:05:45;;;;;;;0.67;0.67;;;7.60;99.90;;;;;;5026094;28;20534;-77
2022/05/07 05:08:11;;;;;;;0.60;0.60;;;7.70;99.90;;;;;;5012741;28;20172;-77
2022/05/07 05:10:36;;;;;;;0.60;0.60;;;7.90;99.90;;;;;;5016066;28;20226;-78
2022/05/07 05:13:02;;;;;;;0.67;0.67;;;8.10;99.90;;;;;;5019411;28;20656;-79
2022/05/07 05:15:28;;;;;;;0.60;0.60;;;8.40;94.50;;;;;;5021938;28;20177;-77
2022/05/07 05:17:53;;;;;;;0.67;0.67;;;8.60;1.00;;;;;;5003002;28;20207;-78
2022/05/07 05:20:19;;;;;;;0.60;0.60;;;8.90;1.00;;;;;;5014555;28;20224;-78
2022/05/07 05:22:47;;;;;;;0.70;0.70;;;9.00;1.00;;;;;;5018199;28;20183;-77
2022/05/07 05:25:13;;;;;;;0.60;0.60;;;9.00;1.00;;;;;;5018322;28;20194;-77
2022/05/07 05:27:38;;;;;;;0.60;0.60;;;8.90;1.00;;;;;;5016651;28;20650;-77
2022/05/07 05:30:04;;;;;;;0.77;0.77;;;8.70;1.00;;;;;;5028533;28;20176;-79
2022/05/07 05:32:30;;;;;;;0.70;0.70;;;8.40;33.60;;;;;;5016898;28;20200;-78
2022/05/07 05:34:55;;;;;;;0.63;0.63;;;8.30;99.90;;;;;;5015521;28;20211;-77
2022/05/07 05:37:21;;;;;;;0.60;0.60;;;8.40;99.90;;;;;;5021319;28;20207;-77
2022/05/07 05:39:46;;;;;;;0.60;0.60;;;8.60;99.90;;;;;;5024311;28;20204;-78
2022/05/07 05:42:12;;;;;;;0.50;0.50;;;8.70;99.90;;;;;;5021002;28;20239;-77
2022/05/07 05:44:39;;;;;;;0.70;0.70;;;8.80;99.90;;;;;;5030370;28;20199;-78
2022/05/07 05:47:05;;;;;;;0.60;0.60;;;9.00;99.90;;;;;;5032029;28;20277;-79
2022/05/07 05:49:31;;;;;;;0.60;0.60;;;9.10;99.90;;;;;;5027684;28;20259;-78
2022/05/07 05:51:57;;;;;;;0.50;0.50;;;9.10;99.90;;;;;;5019761;28;20232;-78
2022/05/07 05:54:22;;;;;;;0.60;0.60;;;9.10;99.90;;;;;;5026904;28;20239;-78
2022/05/07 05:56:48;;;;;;;0.60;0.60;;;9.00;99.90;;;;;;5021592;28;20179;-77
2022/05/07 05:59:13;;;;;;;0.77;0.77;;;9.10;99.90;;;;;;5023758;28;20243;-78
2022/05/07 06:01:39;;;;;;;0.70;0.70;;;9.40;99.90;;;;;;5022205;28;20199;-77
2022/05/07 06:04:04;;;;;;;0.50;0.50;;;9.40;99.90;;;;;;5023369;28;20180;-77
2022/05/07 06:06:30;;;;;;;0.50;0.50;;;9.50;99.90;;;;;;5030417;28;20250;-77
2022/05/07 06:08:55;;;;;;;0.50;0.50;;;9.60;99.90;;;;;;5023420;28;20535;-77
2022/05/07 06:11:21;;;;;;;0.60;0.60;;;9.70;99.90;;;;;;5029275;28;20235;-77
2022/05/07 06:13:47;;;;;;;0.60;0.60;;;9.80;99.90;;;;;;5018255;28;20191;-77
2022/05/07 06:16:13;;;;;;;0.60;0.60;;;9.90;99.90;;;;;;5019074;28;20742;-80
2022/05/07 06:18:38;;;;;;;0.57;0.57;;;10.20;99.90;;;;;;5016489;28;20660;-81
2022/05/07 06:21:04;;;;;;;0.60;0.60;;;10.50;99.90;;;;;;5017945;28;20200;-80
2022/05/07 06:23:30;;;;;;;0.50;0.50;;;10.60;39.10;;;;;;5018723;28;20173;-79
2022/05/07 06:28:41;;;;;;;0.50;0.50;;;10.50;1.00;;;;;;5020115;28;20186;-81
2022/05/07 06:31:07;;;;;;;0.50;0.50;;;10.60;1.00;;;;;;5018715;28;20200;-76
2022/05/07 06:33:32;;;;;;;0.50;0.50;;;10.60;1.00;;;;;;5014837;28;20176;-76
2022/05/07 06:35:58;;;;;;;0.60;0.60;;;10.80;1.00;;;;;;5019014;28;20188;-81
2022/05/07 06:38:23;;;;;;;0.60;0.60;;;11.10;1.00;;;;;;5017021;28;20207;-75
2022/05/07 06:40:50;;;;;;;0.50;0.50;;;11.30;1.00;;;;;;5013221;28;20242;-78
2022/05/07 06:43:16;;;;;;;0.43;0.43;;;11.50;1.00;;;;;;5013631;28;20573;-74
2022/05/07 06:45:41;;;;;;;0.50;0.50;;;11.70;1.00;;;;;;5013855;28;20696;-76
2022/05/07 06:48:09;;;;;;;0.50;0.50;;;11.80;1.00;;;;;;5014002;28;20172;-75
2022/05/07 06:50:35;;;;;;;0.50;0.50;;;11.90;1.00;;;;;;5013146;28;20603;-73
2022/05/07 06:53:00;;;;;;;0.50;0.50;;;12.20;1.00;;;;;;5014255;28;20207;-77
2022/05/07 06:55:26;;;;;;;0.40;0.40;;;12.20;1.00;;;;;;5014297;28;20181;-77
2022/05/07 06:57:53;;;;;;;0.50;0.50;;;12.30;1.00;;;;;;5013158;28;20212;-75
2022/05/07 07:00:18;;;;;;;0.40;0.40;;;12.30;1.00;;;;;;5012756;28;20643;-76
2022/05/07 07:02:44;;;;;;;0.50;0.50;;;12.30;1.00;;;;;;5013775;28;20337;-75
2022/05/07 07:05:10;;;;;;;0.50;0.50;;;12.50;1.00;;;;;;5013379;28;20230;-75
2022/05/07 07:07:35;;;;;;;0.50;0.50;;;12.60;1.00;;;;;;5013589;28;20176;-75
2022/05/07 07:10:01;;;;;;;0.50;0.50;;;12.70;99.90;;;;;;5012885;28;20176;-75
2022/05/07 07:12:28;;;;;;;0.50;0.50;;;12.90;99.90;;;;;;5013228;28;20189;-75
2022/05/07 07:14:54;;;;;;;0.50;0.50;;;13.10;1.00;;;;;;5013053;28;20238;-75
2022/05/07 07:17:19;;;;;;;0.47;0.47;;;13.20;1.00;;;;;;5013173;28;20180;-76
2022/05/07 07:19:45;;;;;;;0.40;0.40;;;13.50;99.90;;;;;;5013191;28;20682;-76
2022/05/07 07:22:11;;;;;;;0.40;0.40;;;13.50;99.90;;;;;;5013489;28;20736;-78
2022/05/07 07:24:37;;;;;;;0.40;0.40;;;13.70;1.00;;;;;;5014307;28;20206;-78
2022/05/07 07:27:06;;;;;;;0.50;0.50;;;14.10;1.00;;;;;;5013631;28;20185;-76
2022/05/07 07:29:32;;;;;;;0.40;0.40;;;14.40;1.00;;;;;;5013839;28;20258;-76
2022/05/07 07:31:57;;;;;;;0.40;0.40;;;14.80;1.00;;;;;;5013988;28;20642;-77
2022/05/07 07:34:23;;;;;;;0.40;0.40;;;15.00;1.00;;;;;;5013964;28;20511;-78
2022/05/07 07:36:50;;;;;;;0.40;0.40;;;15.50;1.00;;;;;;5014925;28;20172;-78
2022/05/07 07:39:17;;;;;;;0.40;0.40;;;16.30;99.90;;;;;;5013228;28;20212;-76
2022/05/07 07:41:43;;;;;;;0.30;0.30;;;17.40;59.40;;;;;;5014446;28;20227;-76
2022/05/07 07:44:09;;;;;;;0.40;0.40;;;17.90;1.00;;;;;;5014509;28;20188;-75
2022/05/07 07:49:19;;;;;;;0.40;0.40;;;19.30;1.00;;;;;;5015666;28;20556;-77
2022/05/07 07:51:44;;;;;;;0.33;0.33;;;19.90;1.00;;;;;;5019959;28;20676;-79
2022/05/07 07:54:10;;;;;;;0.30;0.30;;;20.20;1.00;;;;;;5022228;28;20188;-78
2022/05/07 07:56:35;;;;;;;0.30;0.30;;;20.10;1.00;;;;;;5018402;28;20223;-78
2022/05/07 07:59:01;;;;;;;0.40;0.40;;;20.60;1.00;;;;;;5015779;28;20213;-77
2022/05/07 08:01:27;;;;;;;0.50;0.50;;;20.80;1.00;;;;;;5014984;28;20212;-78
2022/05/07 08:03:53;;;;;;;0.40;0.40;;;21.20;1.00;;;;;;5017192;28;20275;-77
2022/05/07 08:06:18;;;;;;;0.50;0.50;;;21.60;1.00;;;;;;5016192;28;20183;-79
2022/05/07 08:11:40;;;;;;;0.50;0.50;;;22.40;1.00;;;;;;5021162;28;20203;-78
2022/05/07 08:14:09;;;;;;;0.30;0.30;;;22.70;1.00;;;;;;5018446;28;20194;-78
2022/05/07 08:16:36;;;;;;;0.30;0.30;;;22.50;1.00;;;;;;5020725;28;20172;-78
2022/05/07 08:19:03;;;;;;;0.50;0.50;;;22.30;1.00;;;;;;5013957;28;20596;-76
2022/05/07 08:21:29;;;;;;;0.40;0.40;;;22.50;1.00;;;;;;5012328;28;20193;-76
2022/05/07 08:23:55;;;;;;;0.40;0.40;;;23.10;1.00;;;;;;5013491;28;20267;-76
2022/05/07 08:26:21;;;;;;;0.40;0.40;;;23.50;1.00;;;;;;5015812;28;20173;-76
2022/05/07 08:28:47;;;;;;;0.50;0.50;;;22.90;1.00;;;;;;5012207;28;20183;-75
2022/05/07 08:31:13;;;;;;;0.40;0.40;;;22.90;1.00;;;;;;5011861;28;20208;-75
2022/05/07 08:33:43;;;;;;;0.60;0.60;;;22.90;1.00;;;;;;5011388;28;20563;-76
2022/05/07 08:36:10;;;;;;;0.43;0.43;;;23.30;1.00;;;;;;5011705;28;20259;-76
2022/05/07 08:38:36;;;;;;;0.57;0.57;;;24.20;1.00;;;;;;5011490;28;20541;-76
2022/05/07 08:41:02;;;;;;;0.40;0.40;;;24.80;1.00;;;;;;5010399;28;20232;-80
2022/05/07 08:43:36;;;;;;;0.50;0.50;;;24.90;1.00;;;;;;5013165;28;20184;-77
2022/05/07 08:46:07;;;;;;;0.60;0.60;;;24.60;1.00;;;;;;5012961;28;20188;-77
2022/05/07 08:48:33;;;;;;;0.60;0.60;;;24.80;1.00;;;;;;5013108;28;20193;-77
2022/05/07 08:50:59;;;;;;;0.43;0.43;;;24.80;1.00;;;;;;5011940;28;20197;-73
2022/05/07 08:53:25;;;;;;;0.50;0.50;;;25.40;1.00;;;;;;5012103;28;20523;-73
2022/05/07 08:55:54;;;;;;;0.40;0.40;;;25.40;1.00;;;;;;5012182;28;20184;-73
2022/05/07 08:58:19;;;;;;;0.50;0.50;;;25.20;1.00;;;;;;5011902;28;20173;-73
2022/05/07 09:00:45;;;;;;;0.40;0.40;;;25.40;1.00;;;;;;5011075;28;20278;-74
2022/05/07 09:03:15;;;;;;;0.50;0.50;;;26.00;1.00;;;;;;5011649;28;20180;-73
2022/05/07 09:05:41;;;;;;;0.50;0.50;;;26.30;1.00;;;;;;5011810;28;20680;-73
2022/05/07 09:08:07;;;;;;;0.50;0.50;;;26.80;1.00;;;;;;5011497;28;20646;-73
2022/05/07 09:10:35;;;;;;;0.50;0.50;;;27.20;1.00;;;;;;5012714;28;20203;-74
2022/05/07 09:13:14;;;;;;;0.40;0.40;;;27.50;1.00;;;;;;5010945;28;20180;-72
2022/05/07 09:15:50;;;;;;;0.60;0.60;;;27.70;1.00;;;;;;5009374;28;20271;-73
2022/05/07 09:18:17;;;;;;;0.60;0.60;;;27.90;1.00;;;;;;5011477;28;20672;-73
2022/05/07 09:20:42;;;;;;;0.60;0.60;;;28.00;1.00;;;;;;5011069;28;20228;-74
2022/05/07 09:23:10;;;;;;;0.50;0.50;;;27.50;1.00;;;;;;5011800;28;20690;-73
2022/05/07 09:25:46;;;;;;;0.57;0.57;;;26.70;1.00;;;;;;5011366;28;20179;-74
2022/05/07 09:28:12;;;;;;;0.50;0.50;;;26.50;1.00;;;;;;5011313;28;20259;-73
2022/05/07 09:30:38;;;;;;;0.47;0.47;;;26.90;1.00;;;;;;5011109;28;20292;-76
2022/05/07 09:33:06;;;;;;;0.50;0.50;;;26.70;1.00;;;;;;5010777;28;20672;-74
2022/05/07 09:35:50;;;;;;;0.50;0.50;;;26.60;1.00;;;;;;5011228;28;20263;-75
2022/05/07 09:38:23;;;;;;;0.40;0.40;;;26.20;1.00;;;;;;5010424;28;20234;-75
2022/05/07 09:40:48;;;;;;;0.43;0.43;;;25.90;1.00;;;;;;5010679;28;20212;-74
2022/05/07 09:43:14;;;;;;;0.40;0.40;;;25.90;1.00;;;;;;5010606;28;20266;-75
2022/05/07 09:45:40;;;;;;;0.50;0.50;;;26.40;1.00;;;;;;5010347;28;20181;-74
2022/05/07 09:48:07;;;;;;;0.50;0.50;;;26.50;1.00;;;;;;5010418;28;20668;-75
2022/05/07 09:58:45;;;;;;;0.40;0.40;;;24.30;1.00;;;;;;5010610;28;20211;-75
2022/05/07 10:01:36;;;;;;;0.40;0.40;;;24.50;1.00;;;;;;5010207;28;20203;-73
2022/05/07 10:04:29;;;;;;;0.40;0.40;;;25.10;1.00;;;;;;5010429;28;20185;-76
2022/05/07 10:06:57;;;;;;;0.40;0.40;;;25.60;1.00;;;;;;5000810;28;20665;-76
2022/05/07 10:10:02;;;;;;;0.40;0.40;;;26.00;1.00;;;;;;5001373;28;20256;-74
2022/05/07 10:12:28;;;;;;;0.50;0.50;;;25.70;1.00;;;;;;4997192;28;20244;-76
2022/05/07 10:15:05;;;;;;;0.43;0.43;;;25.00;1.00;;;;;;4991836;28;20177;-75
2022/05/07 10:17:31;;;;;;;0.40;0.40;;;24.30;1.00;;;;;;4998685;28;20222;-76
2022/05/07 10:20:06;;;;;;;0.40;0.40;;;23.80;1.00;;;;;;5010602;28;20307;-76
2022/05/07 10:22:36;;;;;;;0.50;0.50;;;23.50;1.00;;;;;;5013140;28;20223;-77
2022/05/07 10:25:09;;;;;;;0.30;0.30;;;23.90;1.00;;;;;;5010512;28;20188;-76
2022/05/07 10:27:42;;;;;;;0.40;0.40;;;24.40;1.00;;;;;;5010773;28;20176;-74
2022/05/07 10:30:16;;;;;;;0.40;0.40;;;24.40;1.00;;;;;;5007661;28;20169;-73
2022/05/07 10:33:02;;;;;;;0.40;0.40;;;23.80;1.00;;;;;;5010585;28;20197;-72
2022/05/07 10:35:53;;;;;;;0.50;0.50;;;23.50;1.00;;;;;;5007929;28;20545;-75
2022/05/07 10:38:28;;;;;;;0.40;0.40;;;24.10;1.00;;;;;;5009522;28;20185;-76
2022/05/07 10:40:59;;;;;;;0.37;0.37;;;24.10;1.00;;;;;;5007930;28;20215;-76
2022/05/07 10:43:30;;;;;;;0.30;0.30;;;24.10;1.00;;;;;;5010496;28;20177;-75
2022/05/07 10:46:00;;;;;;;0.40;0.40;;;24.30;1.00;;;;;;5010421;28;20181;-74
2022/05/07 10:48:26;;;;;;;0.40;0.40;;;24.70;1.00;;;;;;5010310;28;20173;-75
2022/05/07 10:50:54;;;;;;;0.37;0.37;;;25.20;1.00;;;;;;5011978;28;20204;-76
2022/05/07 10:53:21;;;;;;;0.37;0.37;;;25.80;1.00;;;;;;5014080;28;20200;-74
2022/05/07 10:55:49;;;;;;;0.30;0.30;;;26.10;1.00;;;;;;5014259;28;20180;-75
2022/05/07 10:58:15;;;;;;;0.40;0.40;;;26.40;1.00;;;;;;5014449;28;20172;-76
2022/05/07 11:00:40;;;;;;;0.50;0.50;;;26.30;1.00;;;;;;5013467;28;20221;-77
2022/05/07 11:03:08;;;;;;;0.40;0.40;;;26.40;1.00;;;;;;5014070;28;20180;-75
2022/05/07 11:05:35;;;;;;;0.47;0.47;;;26.40;1.00;;;;;;5014242;28;20216;-76
2022/05/07 11:08:02;;;;;;;0.50;0.50;;;26.50;1.00;;;;;;5014005;28;20173;-75
2022/05/07 11:10:29;;;;;;;0.30;0.30;;;26.80;1.00;;;;;;5013691;28;20172;-76
2022/05/07 11:13:06;;;;;;;0.50;0.50;;;26.80;1.00;;;;;;5013329;28;20262;-74
2022/05/07 11:15:31;;;;;;;0.40;0.40;;;26.50;1.00;;;;;;5013257;28;20250;-75
2022/05/07 11:17:57;;;;;;;0.40;0.40;;;25.60;1.00;;;;;;5014132;28;20642;-73
2022/05/07 11:20:32;;;;;;;0.30;0.30;;;24.50;1.00;;;;;;5013121;28;20314;-76
2022/05/07 11:23:02;;;;;;;0.37;0.37;;;24.00;1.00;;;;;;5013856;28;20645;-76
2022/05/07 11:25:28;;;;;;;0.30;0.30;;;23.40;1.00;;;;;;5013781;28;20173;-75
2022/05/07 11:27:56;;;;;;;0.50;0.50;;;23.00;1.00;;;;;;5014040;28;20264;-75
2022/05/07 11:30:22;;;;;;;0.40;0.40;;;23.00;1.00;;;;;;5013268;28;20172;-75
2022/05/07 11:32:47;;;;;;;0.40;0.40;;;22.90;1.00;;;;;;5014225;28;20180;-75
2022/05/07 11:35:13;;;;;;;0.30;0.30;;;22.90;1.00;;;;;;5014823;28;20557;-73
2022/05/07 11:37:41;;;;;;;0.40;0.40;;;23.30;1.00;;;;;;5015111;28;20175;-74
2022/05/07 11:40:07;;;;;;;0.40;0.40;;;23.70;1.00;;;;;;5014724;28;20216;-74
2022/05/07 11:45:43;;;;;;;0.40;0.40;;;25.10;1.00;;;;;;5013291;28;20700;-73
2022/05/07 11:48:17;;;;;;;0.30;0.30;;;25.30;1.00;;;;;;5013602;28;20184;-76
2022/05/07 11:50:57;;;;;;;0.40;0.40;;;25.10;1.00;;;;;;5012846;28;20208;-74
2022/05/07 11:53:30;;;;;;;0.40;0.40;;;24.50;1.00;;;;;;5013360;28;20264;-72
2022/05/07 11:56:11;;;;;;;0.40;0.40;;;24.10;1.00;;;;;;5013240;28;20207;-73
2022/05/07 11:58:40;;;;;;;0.37;0.37;;;24.00;1.00;;;;;;5013357;28;20184;-73
2022/05/07 12:01:18;;;;;;;0.40;0.40;;;23.70;1.00;;;;;;5012051;28;20212;-73
2022/05/07 12:03:44;;;;;;;0.40;0.40;;;23.40;1.00;;;;;;5013056;28;20180;-75
2022/05/07 12:06:09;;;;;;;0.30;0.30;;;23.00;1.00;;;;;;5013155;28;20173;-72
2022/05/07 12:08:35;;;;;;;0.30;0.30;;;22.70;1.00;;;;;;5012816;28;20260;-73
2022/05/07 12:11:02;;;;;;;0.37;0.37;;;22.60;1.00;;;;;;5012568;28;20201;-73
2022/05/07 12:13:28;;;;;;;0.30;0.30;;;22.50;1.00;;;;;;5012969;28;20165;-73
2022/05/07 12:18:46;;;;;;;0.40;0.40;;;22.60;1.00;;;;;;5013115;28;20207;-75
2022/05/07 12:21:11;;;;;;;0.40;0.40;;;22.80;1.00;;;;;;5012412;28;20697;-74
2022/05/07 12:31:52;;;;;;;0.40;0.40;;;23.40;1.00;;;;;;5012833;28;20555;-74
2022/05/07 12:34:18;;;;;;;0.43;0.43;;;23.60;1.00;;;;;;5012847;28;20212;-72
2022/05/07 12:36:44;;;;;;;0.40;0.40;;;23.80;1.00;;;;;;5012106;28;20230;-74
2022/05/07 12:39:10;;;;;;;0.40;0.40;;;23.90;1.00;;;;;;5011396;28;20700;-75
2022/05/07 12:41:35;;;;;;;0.40;0.40;;;23.80;1.00;;;;;;5011768;28;20282;-74
2022/05/07 12:44:01;;;;;;;0.40;0.40;;;24.10;1.00;;;;;;5012963;28;20168;-73
2022/05/07 12:46:27;;;;;;;0.40;0.40;;;24.10;1.00;;;;;;5015235;28;20175;-74
2022/05/07 12:48:55;;;;;;;0.37;0.37;;;24.10;1.00;;;;;;5011202;28;20238;-74
2022/05/07 12:51:21;;;;;;;0.30;0.30;;;24.10;1.00;;;;;;5011959;28;20245;-74
2022/05/07 12:53:48;;;;;;;0.30;0.30;;;24.40;1.00;;;;;;5011196;28;20176;-74
2022/05/07 12:56:14;;;;;;;0.27;0.27;;;24.70;1.00;;;;;;5011665;28;20741;-74
2022/05/07 12:58:40;;;;;;;0.37;0.37;;;24.80;1.00;;;;;;5012028;28;20264;-73
2022/05/07 13:01:05;;;;;;;0.40;0.40;;;25.20;1.00;;;;;;5011543;28;20219;-73
2022/05/07 13:03:31;;;;;;;0.40;0.40;;;25.50;1.00;;;;;;5011475;28;20560;-74
2022/05/07 13:05:56;;;;;;;0.30;0.30;;;25.30;1.00;;;;;;5011348;28;20184;-72
2022/05/07 13:08:22;;;;;;;0.40;0.40;;;25.00;1.00;;;;;;5011673;28;20188;-75
2022/05/07 13:10:48;;;;;;;0.33;0.33;;;24.60;1.00;;;;;;5011061;28;20204;-75
2022/05/07 13:13:14;;;;;;;0.30;0.30;;;24.30;1.00;;;;;;5011610;28;20187;-75
2022/05/07 13:15:40;;;;;;;0.43;0.43;;;24.00;1.00;;;;;;5012042;28;20188;-75
2022/05/07 13:18:06;;;;;;;0.30;0.30;;;23.70;1.00;;;;;;5011812;28;20557;-73
2022/05/07 13:20:31;;;;;;;0.40;0.40;;;23.60;1.00;;;;;;5011189;28;20223;-74
2022/05/07 13:22:57;;;;;;;0.43;0.43;;;23.80;1.00;;;;;;5011842;28;20604;-75
2022/05/07 13:25:23;;;;;;;0.50;0.50;;;23.70;1.00;;;;;;5011910;28;20721;-74
2022/05/07 13:27:50;;;;;;;0.30;0.30;;;23.10;1.00;;;;;;5011781;28;20180;-75
2022/05/07 13:30:17;;;;;;;0.30;0.30;;;22.80;1.00;;;;;;5010027;28;20172;-73
2022/05/07 13:32:43;;;;;;;0.40;0.40;;;22.80;1.00;;;;;;5011417;28;20263;-73
2022/05/07 13:35:09;;;;;;;0.30;0.30;;;22.60;1.00;;;;;;5011280;28;20272;-74